sensor_id;sensor_type;location;lat;lon;timestamp;P1;durP1;ratioP1;P2;durP2;ratioP2
60336;SDS011;46978;50.288;28.624;2023-06-10T00:00:06;12.25;;;8.29;;
60336;SDS011;46978;50.288;28.624;2023-06-10T00:01:09;11.65;;;8.39;;
60336;SDS011;46978;50.288;28.624;2023-06-10T00:02:10;11.51;;;8.40;;
60336;SDS011;46978;50.288;28.624;2023-06-10T00:03:12;16.84;;;8.71;;
60336;SDS011;46978;50.288;28.624;2023-06-10T00:04:16;13.24;;;8.55;;
60336;SDS011;46978;50.288;28.624;2023-06-10T00:05:18;12.92;;;8.08;;
60336;SDS011;46978;50.288;28.624;2023-06-10T00:06:20;10.70;;;8.06;;
60336;SDS011;46978;50.288;28.624;2023-06-10T00:07:21;11.69;;;8.88;;
60336;SDS011;46978;50.288;28.624;2023-06-10T00:08:23;10.86;;;7.99;;
60336;SDS011;46978;50.288;28.624;2023-06-10T00:09:24;13.49;;;8.39;;
60336;SDS011;46978;50.288;28.624;2023-06-10T00:10:26;10.98;;;8.64;;
60336;SDS011;46978;50.288;28.624;2023-06-10T00:11:27;11.11;;;8.44;;
60336;SDS011;46978;50.288;28.624;2023-06-10T00:12:29;13.26;;;8.53;;
60336;SDS011;46978;50.288;28.624;2023-06-10T00:13:30;14.43;;;8.74;;
60336;SDS011;46978;50.288;28.624;2023-06-10T00:14:32;11.41;;;8.25;;
60336;SDS011;46978;50.288;28.624;2023-06-10T00:15:34;10.74;;;8.17;;
60336;SDS011;46978;50.288;28.624;2023-06-10T00:16:36;13.99;;;8.63;;
60336;SDS011;46978;50.288;28.624;2023-06-10T00:17:38;9.91;;;7.98;;
60336;SDS011;46978;50.288;28.624;2023-06-10T00:18:39;13.34;;;8.71;;
60336;SDS011;46978;50.288;28.624;2023-06-10T00:19:41;12.26;;;9.13;;
60336;SDS011;46978;50.288;28.624;2023-06-10T00:20:43;10.11;;;8.02;;
60336;SDS011;46978;50.288;28.624;2023-06-10T00:21:44;13.18;;;8.35;;
60336;SDS011;46978;50.288;28.624;2023-06-10T00:22:46;12.31;;;8.89;;
60336;SDS011;46978;50.288;28.624;2023-06-10T00:23:47;11.23;;;8.69;;
60336;SDS011;46978;50.288;28.624;2023-06-10T00:24:49;12.75;;;8.26;;
60336;SDS011;46978;50.288;28.624;2023-06-10T00:25:51;10.66;;;7.62;;
60336;SDS011;46978;50.288;28.624;2023-06-10T00:26:52;12.68;;;8.62;;
60336;SDS011;46978;50.288;28.624;2023-06-10T00:27:54;12.09;;;8.20;;
60336;SDS011;46978;50.288;28.624;2023-06-10T00:28:56;15.10;;;8.69;;
60336;SDS011;46978;50.288;28.624;2023-06-10T00:29:58;10.82;;;8.31;;
60336;SDS011;46978;50.288;28.624;2023-06-10T00:30:59;10.07;;;8.01;;
60336;SDS011;46978;50.288;28.624;2023-06-10T00:32:01;11.66;;;8.05;;
60336;SDS011;46978;50.288;28.624;2023-06-10T00:33:02;11.66;;;8.51;;
60336;SDS011;46978;50.288;28.624;2023-06-10T00:34:04;10.97;;;8.17;;
60336;SDS011;46978;50.288;28.624;2023-06-10T00:35:06;10.66;;;7.77;;
60336;SDS011;46978;50.288;28.624;2023-06-10T00:36:08;12.49;;;8.15;;
60336;SDS011;46978;50.288;28.624;2023-06-10T00:37:10;12.39;;;7.91;;
60336;SDS011;46978;50.288;28.624;2023-06-10T00:38:13;11.72;;;8.11;;
60336;SDS011;46978;50.288;28.624;2023-06-10T00:39:15;12.11;;;8.54;;
60336;SDS011;46978;50.288;28.624;2023-06-10T00:40:18;13.79;;;8.24;;
60336;SDS011;46978;50.288;28.624;2023-06-10T00:41:19;10.59;;;8.48;;
60336;SDS011;46978;50.288;28.624;2023-06-10T00:42:21;11.06;;;8.06;;
60336;SDS011;46978;50.288;28.624;2023-06-10T00:43:23;16.24;;;8.33;;
60336;SDS011;46978;50.288;28.624;2023-06-10T00:44:24;11.24;;;8.12;;
60336;SDS011;46978;50.288;28.624;2023-06-10T00:45:26;12.76;;;8.73;;
60336;SDS011;46978;50.288;28.624;2023-06-10T00:46:28;12.26;;;8.47;;
60336;SDS011;46978;50.288;28.624;2023-06-10T00:47:29;9.01;;;7.84;;
60336;SDS011;46978;50.288;28.624;2023-06-10T00:48:32;10.62;;;8.15;;
60336;SDS011;46978;50.288;28.624;2023-06-10T00:49:34;11.21;;;8.93;;
60336;SDS011;46978;50.288;28.624;2023-06-10T00:50:36;10.45;;;8.63;;
60336;SDS011;46978;50.288;28.624;2023-06-10T00:51:38;11.66;;;8.34;;
60336;SDS011;46978;50.288;28.624;2023-06-10T00:52:40;15.27;;;8.59;;
60336;SDS011;46978;50.288;28.624;2023-06-10T00:53:43;10.53;;;8.01;;
60336;SDS011;46978;50.288;28.624;2023-06-10T00:54:45;13.00;;;8.80;;
60336;SDS011;46978;50.288;28.624;2023-06-10T00:55:47;13.74;;;8.57;;
60336;SDS011;46978;50.288;28.624;2023-06-10T00:56:49;13.87;;;8.93;;
60336;SDS011;46978;50.288;28.624;2023-06-10T00:57:51;11.36;;;8.80;;
60336;SDS011;46978;50.288;28.624;2023-06-10T00:58:52;12.09;;;8.71;;
60336;SDS011;46978;50.288;28.624;2023-06-10T00:59:54;10.85;;;8.68;;
60336;SDS011;46978;50.288;28.624;2023-06-10T01:00:56;11.69;;;9.04;;
60336;SDS011;46978;50.288;28.624;2023-06-10T01:01:58;11.80;;;9.00;;
60336;SDS011;46978;50.288;28.624;2023-06-10T01:03:00;12.27;;;9.11;;
60336;SDS011;46978;50.288;28.624;2023-06-10T01:04:02;10.96;;;8.48;;
60336;SDS011;46978;50.288;28.624;2023-06-10T01:05:04;13.14;;;9.09;;
60336;SDS011;46978;50.288;28.624;2023-06-10T01:06:13;11.51;;;8.24;;
60336;SDS011;46978;50.288;28.624;2023-06-10T01:07:23;12.10;;;8.88;;
60336;SDS011;46978;50.288;28.624;2023-06-10T01:08:39;11.39;;;8.37;;
60336;SDS011;46978;50.288;28.624;2023-06-10T01:11:20;10.84;;;8.52;;
60336;SDS011;46978;50.288;28.624;2023-06-10T01:12:30;10.46;;;8.57;;
60336;SDS011;46978;50.288;28.624;2023-06-10T01:13:32;12.00;;;8.46;;
60336;SDS011;46978;50.288;28.624;2023-06-10T01:14:37;11.25;;;9.00;;
60336;SDS011;46978;50.288;28.624;2023-06-10T01:15:39;12.82;;;9.13;;
60336;SDS011;46978;50.288;28.624;2023-06-10T01:16:42;12.34;;;9.24;;
60336;SDS011;46978;50.288;28.624;2023-06-10T01:19:01;12.46;;;8.51;;
60336;SDS011;46978;50.288;28.624;2023-06-10T01:20:04;12.81;;;9.03;;
60336;SDS011;46978;50.288;28.624;2023-06-10T01:21:07;11.57;;;8.96;;
60336;SDS011;46978;50.288;28.624;2023-06-10T01:22:09;10.72;;;8.69;;
60336;SDS011;46978;50.288;28.624;2023-06-10T01:23:11;14.21;;;8.70;;
60336;SDS011;46978;50.288;28.624;2023-06-10T01:24:12;12.75;;;8.56;;
60336;SDS011;46978;50.288;28.624;2023-06-10T01:25:14;10.84;;;8.30;;
60336;SDS011;46978;50.288;28.624;2023-06-10T01:26:16;11.76;;;8.55;;
60336;SDS011;46978;50.288;28.624;2023-06-10T01:27:21;13.79;;;9.17;;
60336;SDS011;46978;50.288;28.624;2023-06-10T01:28:31;12.22;;;8.54;;
60336;SDS011;46978;50.288;28.624;2023-06-10T01:29:37;13.02;;;8.62;;
60336;SDS011;46978;50.288;28.624;2023-06-10T01:31:50;11.50;;;8.93;;
60336;SDS011;46978;50.288;28.624;2023-06-10T01:32:57;11.75;;;8.77;;
60336;SDS011;46978;50.288;28.624;2023-06-10T01:34:01;13.58;;;8.74;;
60336;SDS011;46978;50.288;28.624;2023-06-10T01:35:05;10.94;;;8.81;;
60336;SDS011;46978;50.288;28.624;2023-06-10T01:36:09;10.35;;;8.28;;
60336;SDS011;46978;50.288;28.624;2023-06-10T01:37:13;10.88;;;8.74;;
60336;SDS011;46978;50.288;28.624;2023-06-10T01:38:17;12.49;;;8.88;;
60336;SDS011;46978;50.288;28.624;2023-06-10T01:39:22;11.52;;;8.04;;
60336;SDS011;46978;50.288;28.624;2023-06-10T01:40:25;11.76;;;9.01;;
60336;SDS011;46978;50.288;28.624;2023-06-10T01:41:28;11.23;;;8.17;;
60336;SDS011;46978;50.288;28.624;2023-06-10T01:42:30;10.77;;;8.48;;
60336;SDS011;46978;50.288;28.624;2023-06-10T01:43:36;11.69;;;8.49;;
60336;SDS011;46978;50.288;28.624;2023-06-10T01:44:39;10.92;;;8.35;;
60336;SDS011;46978;50.288;28.624;2023-06-10T01:45:41;10.55;;;8.44;;
60336;SDS011;46978;50.288;28.624;2023-06-10T01:46:42;12.12;;;8.18;;
60336;SDS011;46978;50.288;28.624;2023-06-10T01:47:44;12.02;;;8.72;;
60336;SDS011;46978;50.288;28.624;2023-06-10T01:48:46;11.39;;;8.84;;
60336;SDS011;46978;50.288;28.624;2023-06-10T01:49:48;12.86;;;9.28;;
60336;SDS011;46978;50.288;28.624;2023-06-10T01:50:50;13.57;;;9.77;;
60336;SDS011;46978;50.288;28.624;2023-06-10T01:51:51;13.62;;;9.62;;
60336;SDS011;46978;50.288;28.624;2023-06-10T01:52:53;12.46;;;9.26;;
60336;SDS011;46978;50.288;28.624;2023-06-10T01:53:54;15.91;;;9.07;;
60336;SDS011;46978;50.288;28.624;2023-06-10T01:54:56;13.14;;;9.02;;
60336;SDS011;46978;50.288;28.624;2023-06-10T01:55:57;11.23;;;9.09;;
60336;SDS011;46978;50.288;28.624;2023-06-10T01:56:59;12.44;;;8.78;;
60336;SDS011;46978;50.288;28.624;2023-06-10T01:58:02;13.44;;;9.13;;
60336;SDS011;46978;50.288;28.624;2023-06-10T01:59:03;11.44;;;8.71;;
60336;SDS011;46978;50.288;28.624;2023-06-10T02:00:06;12.56;;;8.75;;
60336;SDS011;46978;50.288;28.624;2023-06-10T02:01:08;12.50;;;8.49;;
60336;SDS011;46978;50.288;28.624;2023-06-10T02:02:09;9.17;;;7.84;;
60336;SDS011;46978;50.288;28.624;2023-06-10T02:03:11;10.21;;;7.97;;
60336;SDS011;46978;50.288;28.624;2023-06-10T02:04:13;12.74;;;8.61;;
60336;SDS011;46978;50.288;28.624;2023-06-10T02:05:14;12.26;;;8.41;;
60336;SDS011;46978;50.288;28.624;2023-06-10T02:06:16;11.47;;;8.89;;
60336;SDS011;46978;50.288;28.624;2023-06-10T02:07:18;12.19;;;9.02;;
60336;SDS011;46978;50.288;28.624;2023-06-10T02:08:20;13.02;;;8.96;;
60336;SDS011;46978;50.288;28.624;2023-06-10T02:09:21;11.08;;;8.95;;
60336;SDS011;46978;50.288;28.624;2023-06-10T02:10:23;11.10;;;8.72;;
60336;SDS011;46978;50.288;28.624;2023-06-10T02:11:25;10.63;;;8.29;;
60336;SDS011;46978;50.288;28.624;2023-06-10T02:12:27;11.68;;;8.59;;
60336;SDS011;46978;50.288;28.624;2023-06-10T02:13:29;10.34;;;8.69;;
60336;SDS011;46978;50.288;28.624;2023-06-10T02:14:31;11.38;;;8.53;;
60336;SDS011;46978;50.288;28.624;2023-06-10T02:15:34;10.93;;;8.70;;
60336;SDS011;46978;50.288;28.624;2023-06-10T02:16:35;11.67;;;8.17;;
60336;SDS011;46978;50.288;28.624;2023-06-10T02:17:37;13.37;;;9.09;;
60336;SDS011;46978;50.288;28.624;2023-06-10T02:18:39;12.40;;;8.46;;
60336;SDS011;46978;50.288;28.624;2023-06-10T02:19:42;12.28;;;8.45;;
60336;SDS011;46978;50.288;28.624;2023-06-10T02:20:43;11.88;;;9.21;;
60336;SDS011;46978;50.288;28.624;2023-06-10T02:21:45;13.27;;;8.85;;
60336;SDS011;46978;50.288;28.624;2023-06-10T02:22:46;12.66;;;10.12;;
60336;SDS011;46978;50.288;28.624;2023-06-10T02:23:48;13.18;;;9.76;;
60336;SDS011;46978;50.288;28.624;2023-06-10T02:24:50;12.23;;;9.51;;
60336;SDS011;46978;50.288;28.624;2023-06-10T02:25:51;10.85;;;9.21;;
60336;SDS011;46978;50.288;28.624;2023-06-10T02:26:53;13.75;;;9.77;;
60336;SDS011;46978;50.288;28.624;2023-06-10T02:27:54;10.42;;;8.95;;
60336;SDS011;46978;50.288;28.624;2023-06-10T02:28:56;11.82;;;9.43;;
60336;SDS011;46978;50.288;28.624;2023-06-10T02:29:58;11.19;;;9.51;;
60336;SDS011;46978;50.288;28.624;2023-06-10T02:30:59;11.16;;;8.92;;
60336;SDS011;46978;50.288;28.624;2023-06-10T02:32:02;12.00;;;8.76;;
60336;SDS011;46978;50.288;28.624;2023-06-10T02:33:04;12.22;;;8.68;;
60336;SDS011;46978;50.288;28.624;2023-06-10T02:34:05;12.91;;;8.49;;
60336;SDS011;46978;50.288;28.624;2023-06-10T02:35:07;11.11;;;8.21;;
60336;SDS011;46978;50.288;28.624;2023-06-10T02:36:10;12.07;;;8.49;;
60336;SDS011;46978;50.288;28.624;2023-06-10T02:37:12;13.30;;;8.09;;
60336;SDS011;46978;50.288;28.624;2023-06-10T02:38:13;11.96;;;8.20;;
60336;SDS011;46978;50.288;28.624;2023-06-10T02:39:15;11.78;;;8.60;;
60336;SDS011;46978;50.288;28.624;2023-06-10T02:40:17;12.12;;;9.05;;
60336;SDS011;46978;50.288;28.624;2023-06-10T02:41:18;12.00;;;8.70;;
60336;SDS011;46978;50.288;28.624;2023-06-10T02:42:20;14.90;;;9.31;;
60336;SDS011;46978;50.288;28.624;2023-06-10T02:43:22;12.77;;;9.49;;
60336;SDS011;46978;50.288;28.624;2023-06-10T02:44:23;12.04;;;9.60;;
60336;SDS011;46978;50.288;28.624;2023-06-10T02:45:25;12.02;;;9.63;;
60336;SDS011;46978;50.288;28.624;2023-06-10T02:46:27;12.56;;;9.71;;
60336;SDS011;46978;50.288;28.624;2023-06-10T02:47:28;11.99;;;9.71;;
60336;SDS011;46978;50.288;28.624;2023-06-10T02:48:30;11.28;;;9.24;;
60336;SDS011;46978;50.288;28.624;2023-06-10T02:49:31;13.54;;;9.91;;
60336;SDS011;46978;50.288;28.624;2023-06-10T02:50:33;12.45;;;9.48;;
60336;SDS011;46978;50.288;28.624;2023-06-10T02:51:35;15.46;;;9.53;;
60336;SDS011;46978;50.288;28.624;2023-06-10T02:52:36;12.24;;;9.21;;
60336;SDS011;46978;50.288;28.624;2023-06-10T02:53:38;12.70;;;9.89;;
60336;SDS011;46978;50.288;28.624;2023-06-10T02:54:39;12.40;;;9.64;;
60336;SDS011;46978;50.288;28.624;2023-06-10T02:55:41;11.56;;;9.21;;
60336;SDS011;46978;50.288;28.624;2023-06-10T02:56:43;13.73;;;9.27;;
60336;SDS011;46978;50.288;28.624;2023-06-10T02:57:44;13.85;;;9.56;;
60336;SDS011;46978;50.288;28.624;2023-06-10T02:58:46;11.71;;;9.45;;
60336;SDS011;46978;50.288;28.624;2023-06-10T02:59:47;12.37;;;8.92;;
60336;SDS011;46978;50.288;28.624;2023-06-10T03:00:49;11.98;;;9.04;;
60336;SDS011;46978;50.288;28.624;2023-06-10T03:01:51;11.24;;;8.69;;
60336;SDS011;46978;50.288;28.624;2023-06-10T03:02:52;14.45;;;9.29;;
60336;SDS011;46978;50.288;28.624;2023-06-10T03:03:54;11.18;;;8.68;;
60336;SDS011;46978;50.288;28.624;2023-06-10T03:04:55;10.27;;;8.35;;
60336;SDS011;46978;50.288;28.624;2023-06-10T03:05:57;10.94;;;8.31;;
60336;SDS011;46978;50.288;28.624;2023-06-10T03:06:59;9.84;;;8.75;;
60336;SDS011;46978;50.288;28.624;2023-06-10T03:08:01;13.81;;;8.81;;
60336;SDS011;46978;50.288;28.624;2023-06-10T03:09:02;14.44;;;8.92;;
60336;SDS011;46978;50.288;28.624;2023-06-10T03:10:05;12.71;;;8.42;;
60336;SDS011;46978;50.288;28.624;2023-06-10T03:11:08;12.02;;;8.59;;
60336;SDS011;46978;50.288;28.624;2023-06-10T03:12:10;11.59;;;8.99;;
60336;SDS011;46978;50.288;28.624;2023-06-10T03:13:12;12.21;;;8.37;;
60336;SDS011;46978;50.288;28.624;2023-06-10T03:14:13;11.32;;;8.29;;
60336;SDS011;46978;50.288;28.624;2023-06-10T03:15:15;11.11;;;8.84;;
60336;SDS011;46978;50.288;28.624;2023-06-10T03:16:16;13.09;;;8.68;;
60336;SDS011;46978;50.288;28.624;2023-06-10T03:17:18;9.76;;;8.46;;
60336;SDS011;46978;50.288;28.624;2023-06-10T03:18:19;11.65;;;8.41;;
60336;SDS011;46978;50.288;28.624;2023-06-10T03:19:21;10.62;;;8.27;;
60336;SDS011;46978;50.288;28.624;2023-06-10T03:20:23;15.20;;;9.69;;
60336;SDS011;46978;50.288;28.624;2023-06-10T03:21:24;10.24;;;8.59;;
60336;SDS011;46978;50.288;28.624;2023-06-10T03:22:26;9.76;;;8.25;;
60336;SDS011;46978;50.288;28.624;2023-06-10T03:23:28;12.80;;;9.09;;
60336;SDS011;46978;50.288;28.624;2023-06-10T03:24:29;11.96;;;8.88;;
60336;SDS011;46978;50.288;28.624;2023-06-10T03:25:31;10.54;;;8.49;;
60336;SDS011;46978;50.288;28.624;2023-06-10T03:26:33;12.25;;;8.45;;
60336;SDS011;46978;50.288;28.624;2023-06-10T03:27:34;10.14;;;8.86;;
60336;SDS011;46978;50.288;28.624;2023-06-10T03:28:36;11.69;;;9.00;;
60336;SDS011;46978;50.288;28.624;2023-06-10T03:29:38;11.75;;;8.87;;
60336;SDS011;46978;50.288;28.624;2023-06-10T03:30:40;12.19;;;8.93;;
60336;SDS011;46978;50.288;28.624;2023-06-10T03:31:41;13.45;;;8.93;;
60336;SDS011;46978;50.288;28.624;2023-06-10T03:32:43;11.89;;;9.24;;
60336;SDS011;46978;50.288;28.624;2023-06-10T03:33:44;13.70;;;8.89;;
60336;SDS011;46978;50.288;28.624;2023-06-10T03:34:46;10.09;;;8.72;;
60336;SDS011;46978;50.288;28.624;2023-06-10T03:35:47;12.53;;;9.57;;
60336;SDS011;46978;50.288;28.624;2023-06-10T03:36:49;12.18;;;9.55;;
60336;SDS011;46978;50.288;28.624;2023-06-10T03:37:51;13.79;;;9.42;;
60336;SDS011;46978;50.288;28.624;2023-06-10T03:38:52;11.04;;;8.94;;
60336;SDS011;46978;50.288;28.624;2023-06-10T03:39:54;13.18;;;8.99;;
60336;SDS011;46978;50.288;28.624;2023-06-10T03:40:56;11.87;;;9.08;;
60336;SDS011;46978;50.288;28.624;2023-06-10T03:41:58;11.46;;;8.81;;
60336;SDS011;46978;50.288;28.624;2023-06-10T03:43:00;12.07;;;9.26;;
60336;SDS011;46978;50.288;28.624;2023-06-10T03:44:02;16.69;;;9.59;;
60336;SDS011;46978;50.288;28.624;2023-06-10T03:45:04;12.57;;;9.78;;
60336;SDS011;46978;50.288;28.624;2023-06-10T03:46:06;11.71;;;9.15;;
60336;SDS011;46978;50.288;28.624;2023-06-10T03:47:08;12.38;;;9.75;;
60336;SDS011;46978;50.288;28.624;2023-06-10T03:48:09;10.80;;;8.99;;
60336;SDS011;46978;50.288;28.624;2023-06-10T03:49:11;13.08;;;9.14;;
60336;SDS011;46978;50.288;28.624;2023-06-10T03:50:14;15.59;;;10.03;;
60336;SDS011;46978;50.288;28.624;2023-06-10T03:51:16;14.44;;;10.19;;
60336;SDS011;46978;50.288;28.624;2023-06-10T03:52:17;12.61;;;10.21;;
60336;SDS011;46978;50.288;28.624;2023-06-10T03:53:19;14.47;;;10.54;;
60336;SDS011;46978;50.288;28.624;2023-06-10T03:54:20;15.03;;;10.52;;
60336;SDS011;46978;50.288;28.624;2023-06-10T03:55:22;11.75;;;9.57;;
60336;SDS011;46978;50.288;28.624;2023-06-10T03:56:24;11.57;;;9.60;;
60336;SDS011;46978;50.288;28.624;2023-06-10T03:57:26;12.45;;;10.05;;
60336;SDS011;46978;50.288;28.624;2023-06-10T03:58:27;12.18;;;9.68;;
60336;SDS011;46978;50.288;28.624;2023-06-10T03:59:29;12.66;;;10.63;;
60336;SDS011;46978;50.288;28.624;2023-06-10T04:00:30;15.24;;;11.37;;
60336;SDS011;46978;50.288;28.624;2023-06-10T04:01:32;16.72;;;11.48;;
60336;SDS011;46978;50.288;28.624;2023-06-10T04:02:33;13.61;;;10.84;;
60336;SDS011;46978;50.288;28.624;2023-06-10T04:03:35;15.47;;;10.66;;
60336;SDS011;46978;50.288;28.624;2023-06-10T04:04:37;17.60;;;13.72;;
60336;SDS011;46978;50.288;28.624;2023-06-10T04:05:38;18.37;;;12.36;;
60336;SDS011;46978;50.288;28.624;2023-06-10T04:06:40;16.48;;;12.78;;
60336;SDS011;46978;50.288;28.624;2023-06-10T04:07:42;18.04;;;13.46;;
60336;SDS011;46978;50.288;28.624;2023-06-10T04:08:44;18.49;;;12.69;;
60336;SDS011;46978;50.288;28.624;2023-06-10T04:09:45;15.97;;;12.52;;
60336;SDS011;46978;50.288;28.624;2023-06-10T04:10:47;14.12;;;11.81;;
60336;SDS011;46978;50.288;28.624;2023-06-10T04:11:49;13.69;;;11.76;;
60336;SDS011;46978;50.288;28.624;2023-06-10T04:12:50;14.21;;;11.21;;
60336;SDS011;46978;50.288;28.624;2023-06-10T04:13:52;14.56;;;11.47;;
60336;SDS011;46978;50.288;28.624;2023-06-10T04:14:53;16.11;;;11.17;;
60336;SDS011;46978;50.288;28.624;2023-06-10T04:15:55;14.99;;;11.48;;
60336;SDS011;46978;50.288;28.624;2023-06-10T04:16:57;16.92;;;11.86;;
60336;SDS011;46978;50.288;28.624;2023-06-10T04:17:59;14.86;;;11.25;;
60336;SDS011;46978;50.288;28.624;2023-06-10T04:19:01;14.38;;;10.81;;
60336;SDS011;46978;50.288;28.624;2023-06-10T04:20:04;13.64;;;11.39;;
60336;SDS011;46978;50.288;28.624;2023-06-10T04:21:26;14.88;;;10.99;;
60336;SDS011;46978;50.288;28.624;2023-06-10T04:22:28;15.69;;;11.46;;
60336;SDS011;46978;50.288;28.624;2023-06-10T04:23:29;13.51;;;11.76;;
60336;SDS011;46978;50.288;28.624;2023-06-10T04:24:31;13.96;;;11.23;;
60336;SDS011;46978;50.288;28.624;2023-06-10T04:25:32;15.06;;;11.64;;
60336;SDS011;46978;50.288;28.624;2023-06-10T04:26:35;13.89;;;11.65;;
60336;SDS011;46978;50.288;28.624;2023-06-10T04:27:37;16.35;;;11.59;;
60336;SDS011;46978;50.288;28.624;2023-06-10T04:28:39;14.49;;;11.61;;
60336;SDS011;46978;50.288;28.624;2023-06-10T04:29:41;13.16;;;11.45;;
60336;SDS011;46978;50.288;28.624;2023-06-10T04:30:43;13.06;;;11.35;;
60336;SDS011;46978;50.288;28.624;2023-06-10T04:31:44;17.06;;;11.82;;
60336;SDS011;46978;50.288;28.624;2023-06-10T04:32:47;13.37;;;11.24;;
60336;SDS011;46978;50.288;28.624;2023-06-10T04:33:49;14.83;;;11.17;;
60336;SDS011;46978;50.288;28.624;2023-06-10T04:34:50;14.31;;;11.70;;
60336;SDS011;46978;50.288;28.624;2023-06-10T04:35:52;15.98;;;11.64;;
60336;SDS011;46978;50.288;28.624;2023-06-10T04:36:54;13.31;;;11.51;;
60336;SDS011;46978;50.288;28.624;2023-06-10T04:37:55;14.68;;;11.12;;
60336;SDS011;46978;50.288;28.624;2023-06-10T04:38:57;16.82;;;11.89;;
60336;SDS011;46978;50.288;28.624;2023-06-10T04:39:58;12.28;;;10.94;;
60336;SDS011;46978;50.288;28.624;2023-06-10T04:41:00;13.66;;;11.34;;
60336;SDS011;46978;50.288;28.624;2023-06-10T04:42:02;14.09;;;11.70;;
60336;SDS011;46978;50.288;28.624;2023-06-10T04:43:04;13.61;;;11.28;;
60336;SDS011;46978;50.288;28.624;2023-06-10T04:44:05;15.21;;;11.44;;
60336;SDS011;46978;50.288;28.624;2023-06-10T04:45:07;14.62;;;11.90;;
60336;SDS011;46978;50.288;28.624;2023-06-10T04:46:10;14.62;;;11.47;;
60336;SDS011;46978;50.288;28.624;2023-06-10T04:47:11;13.87;;;11.31;;
60336;SDS011;46978;50.288;28.624;2023-06-10T04:48:13;15.11;;;11.69;;
60336;SDS011;46978;50.288;28.624;2023-06-10T04:49:14;13.96;;;11.11;;
60336;SDS011;46978;50.288;28.624;2023-06-10T04:50:16;13.54;;;11.59;;
60336;SDS011;46978;50.288;28.624;2023-06-10T04:51:18;12.28;;;10.90;;
60336;SDS011;46978;50.288;28.624;2023-06-10T04:52:19;12.54;;;11.03;;
60336;SDS011;46978;50.288;28.624;2023-06-10T04:53:21;16.19;;;12.24;;
60336;SDS011;46978;50.288;28.624;2023-06-10T04:54:23;14.11;;;11.88;;
60336;SDS011;46978;50.288;28.624;2023-06-10T04:55:24;14.87;;;11.82;;
60336;SDS011;46978;50.288;28.624;2023-06-10T04:56:26;13.83;;;11.64;;
60336;SDS011;46978;50.288;28.624;2023-06-10T04:57:27;17.24;;;11.79;;
60336;SDS011;46978;50.288;28.624;2023-06-10T04:58:29;12.88;;;10.81;;
60336;SDS011;46978;50.288;28.624;2023-06-10T04:59:30;15.26;;;12.04;;
60336;SDS011;46978;50.288;28.624;2023-06-10T05:00:32;14.17;;;12.65;;
60336;SDS011;46978;50.288;28.624;2023-06-10T05:01:34;15.03;;;11.64;;
60336;SDS011;46978;50.288;28.624;2023-06-10T05:02:36;14.04;;;11.32;;
60336;SDS011;46978;50.288;28.624;2023-06-10T05:03:37;14.74;;;11.15;;
60336;SDS011;46978;50.288;28.624;2023-06-10T05:04:39;15.79;;;11.96;;
60336;SDS011;46978;50.288;28.624;2023-06-10T05:05:40;13.71;;;11.69;;
60336;SDS011;46978;50.288;28.624;2023-06-10T05:06:44;15.12;;;11.78;;
60336;SDS011;46978;50.288;28.624;2023-06-10T05:07:45;15.17;;;11.31;;
60336;SDS011;46978;50.288;28.624;2023-06-10T05:08:47;12.54;;;10.72;;
60336;SDS011;46978;50.288;28.624;2023-06-10T05:09:48;12.88;;;10.84;;
60336;SDS011;46978;50.288;28.624;2023-06-10T05:10:50;15.90;;;11.67;;
60336;SDS011;46978;50.288;28.624;2023-06-10T05:11:52;12.48;;;10.84;;
60336;SDS011;46978;50.288;28.624;2023-06-10T05:12:53;12.78;;;11.36;;
60336;SDS011;46978;50.288;28.624;2023-06-10T05:13:55;13.31;;;11.22;;
60336;SDS011;46978;50.288;28.624;2023-06-10T05:14:56;13.33;;;10.80;;
60336;SDS011;46978;50.288;28.624;2023-06-10T05:15:58;13.20;;;11.33;;
60336;SDS011;46978;50.288;28.624;2023-06-10T05:17:00;12.06;;;10.52;;
60336;SDS011;46978;50.288;28.624;2023-06-10T05:18:01;13.22;;;11.01;;
60336;SDS011;46978;50.288;28.624;2023-06-10T05:19:03;13.11;;;11.01;;
60336;SDS011;46978;50.288;28.624;2023-06-10T05:20:06;13.02;;;10.63;;
60336;SDS011;46978;50.288;28.624;2023-06-10T05:21:09;14.25;;;11.05;;
60336;SDS011;46978;50.288;28.624;2023-06-10T05:22:11;15.39;;;11.57;;
60336;SDS011;46978;50.288;28.624;2023-06-10T05:23:12;16.22;;;11.04;;
60336;SDS011;46978;50.288;28.624;2023-06-10T05:24:14;12.98;;;11.59;;
60336;SDS011;46978;50.288;28.624;2023-06-10T05:25:15;13.56;;;11.41;;
60336;SDS011;46978;50.288;28.624;2023-06-10T05:26:18;13.99;;;11.05;;
60336;SDS011;46978;50.288;28.624;2023-06-10T05:27:19;13.19;;;11.78;;
60336;SDS011;46978;50.288;28.624;2023-06-10T05:28:21;15.46;;;10.98;;
60336;SDS011;46978;50.288;28.624;2023-06-10T05:29:22;13.38;;;10.50;;
60336;SDS011;46978;50.288;28.624;2023-06-10T05:30:24;11.98;;;9.91;;
60336;SDS011;46978;50.288;28.624;2023-06-10T05:31:26;14.75;;;10.36;;
60336;SDS011;46978;50.288;28.624;2023-06-10T05:32:27;13.20;;;10.50;;
60336;SDS011;46978;50.288;28.624;2023-06-10T05:33:29;12.64;;;10.39;;
60336;SDS011;46978;50.288;28.624;2023-06-10T05:34:30;14.44;;;10.25;;
60336;SDS011;46978;50.288;28.624;2023-06-10T05:35:32;16.04;;;11.39;;
60336;SDS011;46978;50.288;28.624;2023-06-10T05:36:34;13.84;;;10.39;;
60336;SDS011;46978;50.288;28.624;2023-06-10T05:37:36;15.64;;;10.36;;
60336;SDS011;46978;50.288;28.624;2023-06-10T05:38:37;12.99;;;10.04;;
60336;SDS011;46978;50.288;28.624;2023-06-10T05:39:39;17.60;;;10.38;;
60336;SDS011;46978;50.288;28.624;2023-06-10T05:40:41;13.33;;;9.90;;
60336;SDS011;46978;50.288;28.624;2023-06-10T05:41:42;12.52;;;10.11;;
60336;SDS011;46978;50.288;28.624;2023-06-10T05:42:44;13.92;;;10.11;;
60336;SDS011;46978;50.288;28.624;2023-06-10T05:43:46;13.69;;;10.26;;
60336;SDS011;46978;50.288;28.624;2023-06-10T05:44:47;15.34;;;10.31;;
60336;SDS011;46978;50.288;28.624;2023-06-10T05:45:49;13.52;;;10.91;;
60336;SDS011;46978;50.288;28.624;2023-06-10T05:46:51;11.70;;;10.23;;
60336;SDS011;46978;50.288;28.624;2023-06-10T05:47:52;11.68;;;10.05;;
60336;SDS011;46978;50.288;28.624;2023-06-10T05:48:54;12.22;;;10.20;;
60336;SDS011;46978;50.288;28.624;2023-06-10T05:49:55;10.89;;;9.39;;
60336;SDS011;46978;50.288;28.624;2023-06-10T05:50:57;12.87;;;10.27;;
60336;SDS011;46978;50.288;28.624;2023-06-10T05:51:59;11.19;;;9.38;;
60336;SDS011;46978;50.288;28.624;2023-06-10T05:53:00;11.32;;;8.90;;
60336;SDS011;46978;50.288;28.624;2023-06-10T05:54:02;12.11;;;9.62;;
60336;SDS011;46978;50.288;28.624;2023-06-10T05:55:04;14.25;;;9.51;;
60336;SDS011;46978;50.288;28.624;2023-06-10T05:56:06;12.80;;;9.38;;
60336;SDS011;46978;50.288;28.624;2023-06-10T05:57:08;13.41;;;9.79;;
60336;SDS011;46978;50.288;28.624;2023-06-10T05:58:10;12.30;;;9.58;;
60336;SDS011;46978;50.288;28.624;2023-06-10T05:59:13;12.41;;;9.82;;
60336;SDS011;46978;50.288;28.624;2023-06-10T06:00:15;11.84;;;9.71;;
60336;SDS011;46978;50.288;28.624;2023-06-10T06:01:17;11.87;;;9.58;;
60336;SDS011;46978;50.288;28.624;2023-06-10T06:02:18;12.46;;;8.92;;
60336;SDS011;46978;50.288;28.624;2023-06-10T06:03:20;12.03;;;9.84;;
60336;SDS011;46978;50.288;28.624;2023-06-10T06:04:22;10.56;;;9.33;;
60336;SDS011;46978;50.288;28.624;2023-06-10T06:05:23;10.70;;;9.26;;